createdAt,value
2023-03-10T00:01:29.490Z,0.57
2023-03-10T00:03:58.942Z,0.20
2023-03-10T00:06:33.598Z,0.30
2023-03-10T00:09:01.273Z,0.40
2023-03-10T00:11:28.702Z,0.32
2023-03-10T00:13:55.967Z,0.30
2023-03-10T00:16:26.734Z,0.20
2023-03-10T00:21:26.387Z,0.17
2023-03-10T00:23:54.109Z,0.28
2023-03-10T00:26:23.785Z,0.40
2023-03-10T00:28:51.401Z,0.40
2023-03-10T00:31:23.174Z,0.20
2023-03-10T00:33:52.358Z,0.30
2023-03-10T00:36:26.937Z,0.15
2023-03-10T00:38:56.213Z,0.80
2023-03-10T00:41:27.629Z,0.32
2023-03-10T00:43:55.038Z,0.40
2023-03-10T00:46:22.351Z,0.28
2023-03-10T00:48:50.062Z,0.20
2023-03-10T00:51:18.596Z,0.93
2023-03-10T00:53:46.124Z,0.35
2023-03-10T00:56:23.480Z,0.50
2023-03-10T00:58:56.667Z,0.30
2023-03-10T01:01:37.916Z,0.30
2023-03-10T01:04:18.997Z,0.43
2023-03-10T01:06:47.717Z,0.40
2023-03-10T01:09:15.864Z,0.20
2023-03-10T01:11:43.450Z,0.30
2023-03-10T01:14:15.474Z,0.30
2023-03-10T01:16:42.941Z,0.30
2023-03-10T01:19:10.469Z,0.40
2023-03-10T01:21:39.671Z,0.30
2023-03-10T01:24:08.120Z,0.40
2023-03-10T01:26:35.989Z,0.73
2023-03-10T01:29:03.526Z,0.40
2023-03-10T01:31:30.915Z,0.30
2023-03-10T01:33:58.390Z,0.40
2023-03-10T01:36:28.412Z,0.47
2023-03-10T01:38:57.670Z,0.38
2023-03-10T01:41:25.828Z,0.60
2023-03-10T01:43:55.796Z,0.30
2023-03-10T01:46:40.344Z,0.47
2023-03-10T01:49:40.512Z,0.50
2023-03-10T01:52:12.133Z,0.40
2023-03-10T01:54:50.293Z,0.30
2023-03-10T01:57:24.841Z,0.28
2023-03-10T01:59:53.158Z,0.70
2023-03-10T02:02:20.865Z,0.32
2023-03-10T02:04:51.689Z,0.30
2023-03-10T02:07:29.026Z,0.60
2023-03-10T02:09:57.103Z,0.50
2023-03-10T02:12:24.439Z,0.15
2023-03-10T02:14:53.164Z,0.30
2023-03-10T02:17:25.060Z,0.60
2023-03-10T02:20:24.865Z,0.45
2023-03-10T02:22:52.714Z,0.70
2023-03-10T02:25:38.046Z,0.60
2023-03-10T02:28:06.854Z,0.57
2023-03-10T02:30:45.219Z,0.35
2023-03-10T02:33:24.124Z,0.40
2023-03-10T02:35:51.977Z,0.40
2023-03-10T02:38:23.661Z,0.45
2023-03-10T02:40:52.460Z,0.52
2023-03-10T02:43:31.659Z,0.73
2023-03-10T02:46:12.535Z,0.40
2023-03-10T02:51:26.278Z,0.60
2023-03-10T02:53:55.031Z,0.77
2023-03-10T02:56:23.483Z,0.75
2023-03-10T02:58:51.031Z,0.60
2023-03-10T03:01:18.542Z,0.77
2023-03-10T03:03:46.151Z,0.40
2023-03-10T03:06:13.686Z,0.60
2023-03-10T03:08:41.726Z,0.60
2023-03-10T03:11:12.875Z,0.47
2023-03-10T03:13:40.584Z,0.52
2023-03-10T03:16:09.788Z,0.98
2023-03-10T03:18:38.589Z,0.35
2023-03-10T03:21:11.144Z,0.90
2023-03-10T03:23:40.727Z,0.52
2023-03-10T03:26:35.096Z,0.95
2023-03-10T03:29:12.180Z,0.38
2023-03-10T03:31:41.255Z,1.40
2023-03-10T03:34:13.625Z,0.70
2023-03-10T03:36:41.293Z,0.90
2023-03-10T03:39:10.376Z,0.32
2023-03-10T03:41:40.064Z,21.67
2023-03-10T03:44:07.332Z,1.02
2023-03-10T03:46:36.194Z,5.53
2023-03-10T03:49:04.942Z,1.33
2023-03-10T03:51:32.666Z,1.40
2023-03-10T03:54:00.626Z,2.22
2023-03-10T03:56:27.856Z,8.15
2023-03-10T03:58:55.196Z,1.60
2023-03-10T04:01:22.671Z,1.23
2023-03-10T04:03:54.516Z,1.42
2023-03-10T04:06:22.348Z,0.98
2023-03-10T04:08:51.140Z,1.67
2023-03-10T04:11:19.491Z,1.63
2023-03-10T04:13:48.807Z,1.52
2023-03-10T04:16:16.464Z,2.97
2023-03-10T04:18:45.407Z,2.63
2023-03-10T04:21:15.558Z,1.80
2023-03-10T04:23:43.851Z,1.95
2023-03-10T04:26:14.627Z,1.30
2023-03-10T04:28:42.405Z,1.60
2023-03-10T04:31:18.161Z,0.70
2023-03-10T04:33:47.732Z,1.38
2023-03-10T04:36:16.236Z,0.98
2023-03-10T04:38:45.819Z,0.32
2023-03-10T04:41:14.057Z,0.32
2023-03-10T04:46:15.898Z,0.30
2023-03-10T04:48:44.243Z,0.20
2023-03-10T04:51:13.201Z,0.40
2023-03-10T04:53:48.626Z,0.95
2023-03-10T04:56:15.905Z,0.63
2023-03-10T04:58:43.744Z,0.47
2023-03-10T05:01:16.320Z,0.60
2023-03-10T05:03:53.571Z,0.40
2023-03-10T05:06:22.272Z,0.90
2023-03-10T05:08:58.116Z,0.30
2023-03-10T05:11:25.527Z,1.20
2023-03-10T05:13:52.696Z,0.30
2023-03-10T05:16:22.455Z,0.40
2023-03-10T05:18:51.166Z,0.28
2023-03-10T05:21:22.732Z,0.40
2023-03-10T05:23:51.875Z,0.30
2023-03-10T05:26:20.523Z,0.40
2023-03-10T05:28:48.176Z,0.50
2023-03-10T05:33:58.824Z,0.25
2023-03-10T05:36:26.587Z,0.35
2023-03-10T05:38:54.305Z,0.60
2023-03-10T05:41:21.830Z,0.85
2023-03-10T05:43:53.404Z,0.40
2023-03-10T05:46:21.353Z,0.88
2023-03-10T05:48:54.259Z,0.80
2023-03-10T05:51:21.709Z,0.40
2023-03-10T05:53:49.056Z,0.45
2023-03-10T05:56:23.072Z,1.17
2023-03-10T05:58:54.226Z,0.57
2023-03-10T06:01:27.708Z,0.52
2023-03-10T06:03:54.932Z,0.40
2023-03-10T06:06:22.194Z,0.38
2023-03-10T06:08:49.470Z,0.30
2023-03-10T06:11:16.889Z,0.30
2023-03-10T06:13:44.245Z,0.38
2023-03-10T06:16:12.027Z,0.43
2023-03-10T06:18:39.388Z,0.30
2023-03-10T06:21:09.556Z,0.20
2023-03-10T06:23:37.694Z,0.35
2023-03-10T06:26:14.156Z,0.40
2023-03-10T06:28:45.515Z,0.30
2023-03-10T06:31:23.437Z,0.35
2023-03-10T06:33:51.257Z,0.30
2023-03-10T06:36:19.737Z,0.30
2023-03-10T06:38:47.302Z,0.60
2023-03-10T06:41:14.809Z,0.40
2023-03-10T06:43:42.707Z,0.40
2023-03-10T06:46:11.582Z,0.47
2023-03-10T06:48:40.993Z,0.60
2023-03-10T06:51:11.604Z,1.25
2023-03-10T06:53:39.336Z,0.35
2023-03-10T06:56:17.224Z,0.73
2023-03-10T06:58:45.433Z,0.60
2023-03-10T07:01:28.762Z,0.63
2023-03-10T07:03:56.678Z,0.40
2023-03-10T07:06:24.977Z,0.30
2023-03-10T07:08:54.383Z,0.40
2023-03-10T07:11:23.079Z,0.40
2023-03-10T07:13:50.466Z,0.52
2023-03-10T07:16:18.172Z,0.40
2023-03-10T07:18:45.816Z,0.43
2023-03-10T07:21:17.769Z,0.50
2023-03-10T07:23:45.440Z,0.40
2023-03-10T07:26:15.703Z,0.38
2023-03-10T07:28:43.009Z,0.60
2023-03-10T07:31:14.635Z,0.40
2023-03-10T07:33:42.296Z,0.65
2023-03-10T07:36:15.140Z,0.40
2023-03-10T07:38:42.769Z,0.60
2023-03-10T07:41:17.104Z,0.50
2023-03-10T07:43:44.962Z,0.77
2023-03-10T07:46:15.247Z,0.80
2023-03-10T07:48:43.275Z,0.77
2023-03-10T07:51:12.589Z,0.75
2023-03-10T07:53:39.999Z,0.65
2023-03-10T07:56:10.456Z,0.60
2023-03-10T07:58:38.677Z,0.70
2023-03-10T08:01:07.232Z,0.90
2023-03-10T08:03:35.042Z,0.73
2023-03-10T08:06:05.564Z,0.65
2023-03-10T08:08:33.099Z,0.82
2023-03-10T08:11:07.064Z,0.80
2023-03-10T08:13:34.391Z,0.90
2023-03-10T08:16:02.660Z,0.90
2023-03-10T08:18:31.793Z,0.68
2023-03-10T08:21:02.803Z,1.02
2023-03-10T08:23:30.211Z,0.98
2023-03-10T08:26:06.357Z,1.40
2023-03-10T08:28:35.307Z,1.40
2023-03-10T08:31:15.866Z,1.00
2023-03-10T08:36:21.770Z,0.90
2023-03-10T08:38:51.711Z,1.10
2023-03-10T08:41:29.646Z,1.50
2023-03-10T08:43:58.708Z,1.30
2023-03-10T08:46:29.269Z,1.05
2023-03-10T08:51:24.674Z,0.90
2023-03-10T08:53:53.482Z,1.13
2023-03-10T08:56:22.493Z,0.73
2023-03-10T08:58:50.384Z,1.30
2023-03-10T09:01:18.191Z,1.23
2023-03-10T09:03:46.607Z,0.90
2023-03-10T09:06:15.269Z,0.95
2023-03-10T09:08:43.150Z,0.90
2023-03-10T09:11:15.225Z,0.90
2023-03-10T09:13:42.421Z,0.90
2023-03-10T09:16:11.366Z,1.23
2023-03-10T09:18:39.132Z,1.10
2023-03-10T09:21:06.749Z,1.40
2023-03-10T09:23:34.413Z,1.20
2023-03-10T09:26:01.626Z,0.90
2023-03-10T09:28:28.778Z,1.05
2023-03-10T09:30:56.049Z,1.08
2023-03-10T09:33:23.510Z,1.08
2023-03-10T09:36:06.099Z,1.42
2023-03-10T09:38:34.704Z,1.48
2023-03-10T09:41:52.799Z,1.55
2023-03-10T09:44:43.721Z,1.58
2023-03-10T09:47:10.991Z,1.52
2023-03-10T09:49:40.548Z,1.92
2023-03-10T09:52:29.361Z,1.92
2023-03-10T09:55:24.709Z,1.80
2023-03-10T09:57:55.800Z,1.52
2023-03-10T10:00:44.777Z,1.85
2023-03-10T10:03:20.103Z,1.55
2023-03-10T10:05:51.676Z,2.10
2023-03-10T10:08:30.423Z,1.88
2023-03-10T10:11:00.921Z,1.52
2023-03-10T10:13:30.839Z,1.67
2023-03-10T10:16:33.522Z,1.60
2023-03-10T10:19:20.306Z,1.98
2023-03-10T10:22:18.065Z,1.70
2023-03-10T10:25:25.488Z,1.92
2023-03-10T10:27:56.208Z,1.92
2023-03-10T10:30:37.467Z,1.88
2023-03-10T10:33:08.915Z,1.70
2023-03-10T10:36:03.441Z,2.05
2023-03-10T10:38:32.544Z,1.98
2023-03-10T10:40:59.589Z,1.87
2023-03-10T10:43:27.095Z,2.03
2023-03-10T10:46:05.973Z,2.33
2023-03-10T10:48:48.488Z,1.90
2023-03-10T10:51:35.907Z,2.00
2023-03-10T10:54:28.800Z,2.13
2023-03-10T10:57:01.921Z,1.92
2023-03-10T10:59:34.688Z,2.45
2023-03-10T11:02:04.270Z,2.40
2023-03-10T11:04:46.631Z,2.50
2023-03-10T11:07:27.213Z,2.10
2023-03-10T11:09:58.247Z,2.80
2023-03-10T11:12:37.896Z,2.53
2023-03-10T11:15:35.978Z,1.90
2023-03-10T11:18:36.636Z,2.60
2023-03-10T11:21:22.190Z,2.40
2023-03-10T11:24:23.534Z,2.65
2023-03-10T11:27:00.006Z,2.53
2023-03-10T11:29:49.171Z,2.03
2023-03-10T11:32:41.756Z,2.40
2023-03-10T11:35:45.712Z,2.60
2023-03-10T11:38:37.704Z,3.15
2023-03-10T11:41:31.749Z,2.70
2023-03-10T11:44:25.579Z,2.40
2023-03-10T11:47:06.976Z,2.75
2023-03-10T11:49:40.343Z,2.50
2023-03-10T11:52:21.152Z,2.20
2023-03-10T11:55:05.862Z,2.40
2023-03-10T11:57:44.037Z,2.40
2023-03-10T12:00:36.765Z,2.47
2023-03-10T12:03:40.327Z,2.70
2023-03-10T12:06:17.249Z,2.22
2023-03-10T12:08:45.216Z,2.20
2023-03-10T12:11:21.495Z,2.42
2023-03-10T12:13:55.081Z,1.92
2023-03-10T12:16:28.342Z,1.90
2023-03-10T12:18:56.166Z,2.65
2023-03-10T12:21:28.657Z,2.35
2023-03-10T12:24:02.036Z,2.05
2023-03-10T12:26:38.341Z,1.90
2023-03-10T12:29:20.421Z,1.98
2023-03-10T12:31:55.307Z,2.05
2023-03-10T12:34:32.584Z,1.77
2023-03-10T12:37:02.448Z,2.00
2023-03-10T12:39:38.527Z,2.08
2023-03-10T12:42:27.633Z,1.83
2023-03-10T12:45:29.347Z,2.28
2023-03-10T12:48:11.443Z,2.10
2023-03-10T12:50:58.037Z,1.77
2023-03-10T12:53:38.852Z,3.03
2023-03-10T12:56:16.713Z,2.38
2023-03-10T12:59:05.545Z,2.53
2023-03-10T13:01:54.772Z,2.53
2023-03-10T13:04:24.640Z,2.78
2023-03-10T13:06:58.228Z,2.53
2023-03-10T13:09:42.355Z,1.90
2023-03-10T13:12:29.149Z,2.00
2023-03-10T13:14:59.981Z,2.20
2023-03-10T13:17:31.602Z,2.03
2023-03-10T13:20:31.209Z,2.00
2023-03-10T13:22:59.548Z,1.90
2023-03-10T13:25:27.141Z,1.90
2023-03-10T13:27:57.452Z,2.17
2023-03-10T13:35:38.632Z,1.90
2023-03-10T13:38:21.911Z,1.52
2023-03-10T13:40:56.683Z,1.77
2023-03-10T13:43:45.279Z,1.67
2023-03-10T13:46:37.465Z,1.80
2023-03-10T13:49:08.069Z,2.08
2023-03-10T13:51:37.620Z,1.38
2023-03-10T13:54:24.709Z,1.83
2023-03-10T13:57:15.974Z,2.13
2023-03-10T13:59:43.620Z,1.60
2023-03-10T14:02:20.967Z,1.95
2023-03-10T14:04:54.146Z,2.25
2023-03-10T14:07:26.764Z,2.22
2023-03-10T14:10:06.362Z,2.47
2023-03-10T14:12:56.753Z,2.07
2023-03-10T14:15:28.720Z,1.73
2023-03-10T14:18:08.136Z,3.42
2023-03-10T14:20:44.692Z,2.03
2023-03-10T14:23:23.588Z,2.83
2023-03-10T14:25:54.454Z,2.70
2023-03-10T14:28:32.530Z,2.78
2023-03-10T14:31:02.616Z,3.20
2023-03-10T14:33:30.586Z,2.80
2023-03-10T14:35:57.894Z,3.85
2023-03-10T14:38:25.271Z,2.80
2023-03-10T14:40:54.907Z,2.80
2023-03-10T14:43:26.468Z,4.05
2023-03-10T14:45:58.261Z,6.50
2023-03-10T14:48:29.894Z,3.67
2023-03-10T14:50:57.307Z,2.08
2023-03-10T14:53:27.039Z,2.50
2023-03-10T14:55:57.205Z,7.38
2023-03-10T14:58:49.679Z,3.03
2023-03-10T15:01:20.044Z,2.50
2023-03-10T15:06:19.732Z,2.60
2023-03-10T15:11:17.407Z,2.42
2023-03-10T15:13:48.753Z,2.72
2023-03-10T15:16:16.130Z,3.50
2023-03-10T15:18:43.336Z,2.70
2023-03-10T15:21:10.703Z,3.05
2023-03-10T15:23:38.038Z,3.60
2023-03-10T15:26:09.751Z,2.97
2023-03-10T15:28:38.276Z,3.05
2023-03-10T15:31:06.645Z,3.17
2023-03-10T15:33:34.000Z,2.72
2023-03-10T15:36:01.319Z,3.08
2023-03-10T15:38:28.782Z,3.15
2023-03-10T15:40:57.316Z,4.25
2023-03-10T15:43:24.710Z,2.80
2023-03-10T15:45:52.012Z,2.50
2023-03-10T15:48:19.382Z,2.00
2023-03-10T15:50:47.146Z,2.47
2023-03-10T15:53:14.962Z,2.13
2023-03-10T15:55:43.049Z,1.92
2023-03-10T15:58:11.536Z,1.40
2023-03-10T16:00:39.585Z,1.73
2023-03-10T16:03:07.412Z,1.70
2023-03-10T16:05:37.088Z,1.92
2023-03-10T16:08:08.283Z,1.33
2023-03-10T16:10:35.706Z,1.30
2023-03-10T16:13:03.047Z,1.30
2023-03-10T16:15:30.268Z,1.60
2023-03-10T16:17:57.918Z,2.30
2023-03-10T16:20:25.300Z,3.10
2023-03-10T16:22:52.487Z,2.75
2023-03-10T16:25:21.362Z,2.83
2023-03-10T16:27:48.678Z,2.28
2023-03-10T16:30:18.240Z,2.05
2023-03-10T16:32:47.505Z,1.90
2023-03-10T16:35:16.567Z,2.45
2023-03-10T16:37:44.019Z,1.50
2023-03-10T16:40:12.277Z,1.73
2023-03-10T16:42:43.399Z,2.08
2023-03-10T16:45:11.217Z,1.73
2023-03-10T16:47:38.502Z,1.73
2023-03-10T16:50:06.427Z,1.80
2023-03-10T16:52:42.279Z,1.92
2023-03-10T16:55:19.007Z,1.40
2023-03-10T16:57:46.388Z,1.70
2023-03-10T17:00:14.910Z,3.67
2023-03-10T17:02:42.223Z,3.22
2023-03-10T17:05:10.191Z,3.92
2023-03-10T17:07:46.410Z,2.90
2023-03-10T17:10:17.201Z,3.30
2023-03-10T17:12:44.351Z,3.15
2023-03-10T17:15:12.223Z,2.55
2023-03-10T17:17:39.472Z,3.20
2023-03-10T17:20:07.750Z,3.42
2023-03-10T17:22:37.815Z,4.72
2023-03-10T17:25:06.437Z,4.45
2023-03-10T17:27:33.630Z,4.55
2023-03-10T17:30:01.101Z,5.05
2023-03-10T17:32:28.462Z,4.30
2023-03-10T17:34:56.063Z,4.75
2023-03-10T17:37:23.386Z,4.65
2023-03-10T17:39:50.624Z,4.72
2023-03-10T17:42:17.973Z,4.72
2023-03-10T17:44:45.285Z,4.18
2023-03-10T17:47:12.567Z,5.30
2023-03-10T17:49:41.244Z,5.72
2023-03-10T17:52:08.748Z,4.70
2023-03-10T17:54:36.110Z,4.65
2023-03-10T17:57:03.592Z,5.03
2023-03-10T17:59:32.832Z,4.57
2023-03-10T18:02:02.870Z,5.82
2023-03-10T18:04:30.686Z,7.00
2023-03-10T18:06:57.981Z,5.18
2023-03-10T18:09:25.252Z,5.60
2023-03-10T18:11:56.898Z,7.07
2023-03-10T18:14:25.339Z,6.22
2023-03-10T18:16:52.716Z,6.05
2023-03-10T18:19:21.325Z,4.38
2023-03-10T18:21:49.965Z,4.50
2023-03-10T18:24:17.660Z,4.65
2023-03-10T18:26:45.844Z,3.80
2023-03-10T18:29:14.456Z,4.75
2023-03-10T18:31:41.910Z,3.80
2023-03-10T18:34:10.367Z,3.97
2023-03-10T18:36:37.764Z,5.20
2023-03-10T18:39:07.354Z,4.95
2023-03-10T18:41:35.536Z,5.40
2023-03-10T18:44:04.610Z,5.50
2023-03-10T18:46:31.945Z,4.03
2023-03-10T18:48:59.253Z,5.10
2023-03-10T18:51:29.044Z,4.07
2023-03-10T18:53:56.606Z,5.67
2023-03-10T18:56:26.117Z,6.18
2023-03-10T18:58:53.794Z,4.10
2023-03-10T19:01:21.776Z,5.95
2023-03-10T19:03:49.448Z,5.50
2023-03-10T19:06:16.800Z,5.90
2023-03-10T19:08:44.232Z,5.65
2023-03-10T19:11:12.056Z,4.70
2023-03-10T19:13:40.655Z,4.00
2023-03-10T19:16:09.988Z,3.88
2023-03-10T19:18:37.597Z,5.47
2023-03-10T19:21:05.327Z,5.38
2023-03-10T19:23:34.959Z,6.32
2023-03-10T19:26:03.385Z,9.68
2023-03-10T19:28:31.581Z,8.95
2023-03-10T19:30:59.186Z,6.97
2023-03-10T19:33:27.140Z,6.15
2023-03-10T19:36:06.502Z,4.88
2023-03-10T19:38:38.285Z,7.32
2023-03-10T19:41:10.863Z,5.40
2023-03-10T19:43:38.395Z,7.30
2023-03-10T19:46:09.570Z,7.82
2023-03-10T19:48:37.295Z,6.55
2023-03-10T19:51:05.822Z,6.30
2023-03-10T19:53:34.971Z,6.53
2023-03-10T19:56:04.857Z,5.38
2023-03-10T19:58:32.813Z,6.32
2023-03-10T20:01:00.642Z,5.35
2023-03-10T20:03:31.560Z,5.70
2023-03-10T20:05:59.090Z,5.55
2023-03-10T20:08:26.296Z,14.10
2023-03-10T20:10:53.767Z,15.85
2023-03-10T20:13:21.354Z,12.13
2023-03-10T20:15:48.908Z,10.25
2023-03-10T20:18:18.586Z,9.77
2023-03-10T20:20:46.024Z,14.27
2023-03-10T20:23:13.971Z,16.45
2023-03-10T20:25:41.798Z,16.13
2023-03-10T20:28:10.839Z,26.77
2023-03-10T20:30:38.954Z,18.65
2023-03-10T20:33:06.157Z,16.00
2023-03-10T20:35:34.416Z,8.35
2023-03-10T20:38:02.316Z,6.60
2023-03-10T20:40:29.602Z,9.35
2023-03-10T20:43:01.695Z,7.45
2023-03-10T20:45:29.132Z,7.57
2023-03-10T20:47:56.968Z,8.68
2023-03-10T20:50:24.865Z,8.50
2023-03-10T20:52:52.598Z,5.85
2023-03-10T20:55:23.719Z,5.38
2023-03-10T20:57:53.253Z,4.40
2023-03-10T21:00:24.745Z,3.50
2023-03-10T21:02:57.005Z,4.45
2023-03-10T21:05:27.082Z,5.63
2023-03-10T21:07:55.057Z,3.70
2023-03-10T21:10:22.812Z,3.28
2023-03-10T21:12:50.931Z,3.25
2023-03-10T21:15:19.634Z,3.90
2023-03-10T21:17:47.861Z,3.53
2023-03-10T21:20:20.946Z,4.00
2023-03-10T21:22:49.010Z,3.97
2023-03-10T21:25:24.193Z,2.35
2023-03-10T21:27:58.639Z,1.50
2023-03-10T21:30:32.069Z,1.67
2023-03-10T21:32:59.988Z,1.80
2023-03-10T21:35:30.564Z,1.50
2023-03-10T21:37:59.408Z,1.50
2023-03-10T21:40:27.210Z,1.58
2023-03-10T21:42:54.713Z,2.20
2023-03-10T21:45:24.727Z,1.67
2023-03-10T21:47:52.024Z,1.65
2023-03-10T21:50:19.983Z,1.73
2023-03-10T21:52:48.201Z,1.98
2023-03-10T21:55:24.485Z,1.92
2023-03-10T21:57:52.624Z,1.88
2023-03-10T22:00:23.267Z,1.50
2023-03-10T22:05:20.433Z,2.00
2023-03-10T22:07:48.180Z,1.88
2023-03-10T22:10:16.849Z,1.65
2023-03-10T22:12:44.104Z,1.52
2023-03-10T22:15:25.561Z,1.55
2023-03-10T22:17:55.335Z,1.55
2023-03-10T22:20:27.086Z,1.63
2023-03-10T22:22:55.304Z,1.77
2023-03-10T22:25:22.452Z,1.77
2023-03-10T22:27:53.515Z,1.75
2023-03-10T22:30:23.395Z,1.63
2023-03-10T22:32:50.777Z,1.52
2023-03-10T22:35:18.808Z,1.70
2023-03-10T22:37:46.430Z,1.60
2023-03-10T22:40:21.309Z,1.70
2023-03-10T22:42:49.534Z,2.13
2023-03-10T22:45:29.721Z,1.50
2023-03-10T22:48:01.184Z,1.70
2023-03-10T22:50:35.955Z,1.27
2023-03-10T22:53:07.498Z,2.03
2023-03-10T22:55:35.771Z,1.58
2023-03-10T22:58:07.617Z,1.52
2023-03-10T23:00:35.217Z,1.73
2023-03-10T23:03:04.834Z,1.65
2023-03-10T23:05:32.407Z,1.85
2023-03-10T23:07:59.920Z,1.20
2023-03-10T23:10:31.232Z,1.65
2023-03-10T23:13:17.477Z,1.75
2023-03-10T23:15:45.508Z,1.48
2023-03-10T23:18:13.074Z,1.40
2023-03-10T23:20:47.895Z,1.25
2023-03-10T23:23:16.573Z,1.30
2023-03-10T23:25:47.382Z,1.52
2023-03-10T23:30:44.961Z,1.42
2023-03-10T23:33:19.771Z,1.08
2023-03-10T23:35:50.474Z,1.25
2023-03-10T23:40:44.860Z,1.05
2023-03-10T23:43:13.588Z,1.00
2023-03-10T23:45:41.258Z,1.17
2023-03-10T23:48:13.493Z,1.10
2023-03-10T23:50:43.614Z,1.60
2023-03-10T23:53:13.276Z,1.05
2023-03-10T23:55:43.210Z,1.10
2023-03-10T23:58:11.994Z,1.23
